Time;durP1;ratioP1;P1;durP2;ratioP2;P2;SDS_P1;SDS_P2;PMS_P1;PMS_P2;Temp;Humidity;BMP_temperature;BMP_pressure;BME280_temperature;BME280_humidity;BME280_pressure;Samples;Min_cycle;Max_cycle;Signal;HPM_P1;HPM_P2
2023/04/27 00:00:47;;;;;;;12.95;6.55;;;4.00;99.90;;;-144.05;62.18;56952.91;5039632;28;20033;-78
2023/04/27 00:03:13;;;;;;;11.60;6.88;;;4.00;99.90;;;-144.05;62.09;56959.28;5021569;28;20072;-79
2023/04/27 00:05:39;;;;;;;12.90;6.78;;;4.00;99.90;;;-144.05;62.26;56967.78;5040052;28;20079;-79
2023/04/27 00:08:05;;;;;;;13.52;6.68;;;3.90;99.90;;;-144.05;62.68;56986.91;5039664;28;20355;-78
2023/04/27 00:10:32;;;;;;;14.63;6.93;;;3.90;99.90;;;-144.05;63.07;56963.53;5039731;28;20037;-78
2023/04/27 00:12:58;;;;;;;14.30;7.03;;;3.80;99.90;;;-144.05;63.18;56967.78;5039199;28;20022;-78
2023/04/27 00:15:24;;;;;;;11.57;5.82;;;3.80;99.90;;;-144.05;63.25;56989.00;5039274;28;20060;-78
2023/04/27 00:17:50;;;;;;;16.00;6.50;;;3.70;99.90;;;-144.05;63.42;56999.63;5038768;28;20030;-77
2023/04/27 00:20:17;;;;;;;12.82;6.40;;;3.70;99.90;;;-144.05;63.33;56984.78;5039063;28;20034;-79
2023/04/27 00:22:43;;;;;;;10.90;5.65;;;3.60;99.90;;;-144.05;63.69;56967.78;5021915;28;20022;-78
2023/04/27 00:25:10;;;;;;;12.18;5.45;;;3.50;99.90;;;-144.05;63.56;56972.03;5039917;28;20176;-79
2023/04/27 00:27:36;;;;;;;10.90;5.70;;;3.30;99.90;;;-144.05;64.01;56963.53;5039648;28;20022;-78
2023/04/27 00:30:03;;;;;;;15.10;6.70;;;3.20;99.90;;;-144.05;64.45;56950.78;5039477;28;20029;-79
2023/04/27 00:32:29;;;;;;;13.85;6.40;;;3.20;99.90;;;-144.05;64.68;56982.66;5038585;28;20043;-78
2023/04/27 00:34:55;;;;;;;11.43;6.10;;;3.10;99.90;;;-144.05;64.79;56989.00;5039282;28;20025;-78
2023/04/27 00:37:21;;;;;;;12.77;6.80;;;3.00;99.90;;;-144.05;64.89;56965.66;5038353;28;20032;-77
2023/04/27 00:39:47;;;;;;;11.02;6.13;;;2.90;99.90;;;-144.05;65.62;56952.91;5036343;28;20041;-79
2023/04/27 00:42:16;;;;;;;16.02;6.32;;;2.80;99.90;;;-144.05;65.92;56984.78;5038097;28;20033;-79
2023/04/27 00:44:42;;;;;;;14.68;6.70;;;2.80;99.90;;;-144.05;66.21;56950.78;5039048;28;20032;-79
2023/04/27 00:47:10;;;;;;;17.13;7.43;;;2.70;99.90;;;-144.05;66.29;56976.28;5039062;28;20092;-78
2023/04/27 00:49:36;;;;;;;14.98;6.72;;;2.70;99.90;;;-144.05;66.32;56955.03;5038223;28;20026;-79
2023/04/27 00:52:02;;;;;;;11.10;6.20;;;2.60;99.90;;;-144.05;66.78;56976.28;5037304;28;20033;-78
2023/04/27 00:54:29;;;;;;;12.98;6.57;;;2.50;99.90;;;-144.05;67.05;56972.03;5038651;28;20085;-79
2023/04/27 00:56:55;;;;;;;15.30;6.75;;;2.50;99.90;;;-144.05;67.34;56974.16;5039632;28;20032;-78
2023/04/27 00:59:21;;;;;;;11.40;6.68;;;2.40;99.90;;;-144.05;67.66;56963.53;5038778;28;20085;-78
2023/04/27 01:01:48;;;;;;;12.77;7.63;;;2.40;99.90;;;-144.05;67.49;56995.38;5019603;28;20084;-77
2023/04/27 01:04:16;;;;;;;16.50;7.07;;;2.30;99.90;;;-144.05;67.44;56976.28;5038763;28;20497;-79
2023/04/27 01:06:43;;;;;;;12.10;7.15;;;2.30;99.90;;;-144.05;67.74;56957.16;5038753;28;20476;-79
2023/04/27 01:09:09;;;;;;;14.25;7.00;;;2.30;99.90;;;-144.05;68.21;56955.03;5039383;28;20449;-79
2023/04/27 01:11:35;;;;;;;15.13;6.90;;;2.20;99.90;;;-144.05;68.51;56980.53;5039039;28;20041;-80
2023/04/27 01:14:06;;;;;;;14.25;7.88;;;2.20;99.90;;;-144.05;68.42;56976.28;5038061;28;20033;-79
2023/04/27 01:16:34;;;;;;;14.02;7.03;;;2.10;99.90;;;-144.05;68.25;56965.66;5038060;28;20040;-77
2023/04/27 01:19:00;;;;;;;10.68;6.88;;;2.00;99.90;;;-144.05;68.59;56989.00;5038234;28;20044;-79
2023/04/27 01:21:26;;;;;;;19.92;7.20;;;2.00;99.90;;;-144.05;69.05;56969.91;5037109;28;20036;-79
2023/04/27 01:23:53;;;;;;;16.05;6.53;;;2.00;99.90;;;-144.05;69.17;56965.66;5038490;28;20048;-79
2023/04/27 01:26:19;;;;;;;12.05;6.75;;;1.90;99.90;;;-144.05;69.35;56967.78;5038703;28;20084;-79
2023/04/27 01:28:45;;;;;;;15.13;7.00;;;1.90;99.90;;;-144.05;69.85;56995.38;5038249;28;20030;-79
2023/04/27 01:31:12;;;;;;;17.25;7.50;;;1.80;99.90;;;-144.05;69.79;56974.16;5037508;28;20417;-78
2023/04/27 01:33:39;;;;;;;16.50;7.30;;;1.80;99.90;;;-144.05;70.11;56969.91;5039303;28;20032;-79
2023/04/27 01:36:06;;;;;;;14.80;7.82;;;1.80;99.90;;;-144.05;69.67;56976.28;5038106;28;20060;-79
2023/04/27 01:38:33;;;;;;;15.00;7.05;;;1.80;99.90;;;-144.05;69.83;57001.75;5038747;28;20453;-77
2023/04/27 01:41:00;;;;;;;15.07;7.85;;;1.60;99.90;;;-144.05;70.09;57008.13;5039782;28;20361;-79
2023/04/27 01:43:36;;;;;;;13.77;7.28;;;1.60;99.90;;;-144.05;70.31;56982.66;5037683;28;20031;-80
2023/04/27 01:46:13;;;;;;;17.35;7.78;;;1.60;99.90;;;-144.05;70.77;56974.16;5039386;28;20033;-79
2023/04/27 01:48:41;;;;;;;15.65;8.45;;;1.60;99.90;;;-144.05;70.38;56978.41;5038496;28;20108;-79
2023/04/27 01:51:07;;;;;;;17.13;8.25;;;1.70;99.90;;;-144.05;70.76;56974.16;5038555;28;20034;-79
2023/04/27 01:53:33;;;;;;;17.92;8.32;;;1.70;99.90;;;-144.05;71.23;57018.75;5037811;28;20036;-78
2023/04/27 01:56:00;;;;;;;16.58;7.38;;;1.70;99.90;;;-144.05;70.98;56965.66;5036446;28;20044;-79
2023/04/27 01:58:26;;;;;;;14.60;7.68;;;1.70;99.90;;;-144.05;71.00;56980.53;5036296;28;20025;-78
2023/04/27 02:00:52;;;;;;;13.20;7.22;;;1.60;99.90;;;-144.05;71.00;56965.66;5037651;28;20136;-79
2023/04/27 02:03:18;;;;;;;13.05;7.55;;;1.60;99.90;;;-144.05;71.45;56976.28;5039832;28;20106;-79
2023/04/27 02:05:45;;;;;;;12.90;7.25;;;1.60;99.90;;;-144.05;71.21;56991.13;5039138;28;20029;-79
2023/04/27 02:08:11;;;;;;;17.75;7.47;;;1.60;99.90;;;-144.05;71.50;56972.03;5039031;28;20099;-78
2023/04/27 02:10:37;;;;;;;13.65;7.38;;;1.60;99.90;;;-144.05;72.21;56989.00;5037579;28;20029;-79
2023/04/27 02:13:03;;;;;;;14.88;7.03;;;1.70;99.90;;;-144.05;72.08;56993.25;5020553;28;20357;-79
2023/04/27 02:15:29;;;;;;;15.73;8.32;;;1.70;99.90;;;-144.05;72.35;56999.63;5037798;28;20041;-79
2023/04/27 02:17:56;;;;;;;14.55;7.68;;;1.70;99.90;;;-144.05;72.40;56986.91;5021000;28;20434;-79
2023/04/27 02:20:22;;;;;;;18.38;7.70;;;1.70;99.90;;;-144.05;72.33;56997.50;5037169;28;20033;-78
2023/04/27 02:22:47;;;;;;;17.75;8.05;;;1.70;99.90;;;-144.05;72.28;56995.38;5037342;28;20107;-78
2023/04/27 02:25:14;;;;;;;14.88;7.50;;;1.60;99.90;;;-144.05;72.28;56974.16;5038231;28;20037;-79
2023/04/27 02:27:40;;;;;;;15.38;8.10;;;1.60;99.90;;;-144.05;72.29;56984.78;5037915;28;20029;-80
2023/04/27 02:30:09;;;;;;;15.77;8.35;;;1.50;99.90;;;-144.05;72.53;56997.50;5021268;28;20033;-79
2023/04/27 02:32:35;;;;;;;18.58;8.48;;;1.50;99.90;;;-144.05;72.69;56995.38;5040774;28;20093;-78
2023/04/27 02:35:02;;;;;;;17.30;8.38;;;1.50;99.90;;;-144.05;72.75;56974.16;5038360;28;20060;-78
2023/04/27 02:37:28;;;;;;;20.83;8.82;;;1.50;99.90;;;-144.05;73.00;56974.16;5038783;28;20555;-79
2023/04/27 02:39:54;;;;;;;12.93;7.97;;;1.50;99.90;;;-144.05;72.76;56999.63;5021871;28;20026;-78
2023/04/27 02:42:21;;;;;;;15.50;7.78;;;1.40;99.90;;;-144.05;73.04;56978.41;5037836;28;20026;-79
2023/04/27 02:44:47;;;;;;;20.30;8.13;;;1.30;99.90;;;-144.05;72.81;56969.91;5037077;28;20026;-79
2023/04/27 02:47:13;;;;;;;12.88;7.22;;;1.40;99.90;;;-144.05;72.90;57010.25;5037791;28;20037;-79
2023/04/27 02:49:39;;;;;;;21.77;8.48;;;1.30;99.90;;;-144.05;73.43;56999.63;5038260;28;20477;-78
2023/04/27 02:52:05;;;;;;;15.45;8.48;;;1.30;99.90;;;-144.05;73.23;56982.66;5038577;28;20049;-79
2023/04/27 02:54:31;;;;;;;16.58;8.43;;;1.20;99.90;;;-144.05;73.62;57006.00;5038381;28;20033;-79
2023/04/27 02:56:57;;;;;;;14.77;7.70;;;1.20;99.90;;;-144.05;73.48;56976.28;5038322;28;20017;-80
2023/04/27 02:59:23;;;;;;;19.15;8.18;;;1.20;99.90;;;-144.05;73.55;56997.50;5038079;28;20064;-79
2023/04/27 03:01:49;;;;;;;16.45;8.50;;;1.20;99.90;;;-144.05;73.60;56991.13;5037907;28;20045;-79
2023/04/27 03:04:16;;;;;;;21.77;8.73;;;1.20;99.90;;;-144.05;73.85;57003.88;5037800;28;20033;-79
2023/04/27 03:06:43;;;;;;;21.73;9.00;;;1.20;99.90;;;-144.05;73.94;56967.78;5039274;28;20559;-80
2023/04/27 03:09:09;;;;;;;18.70;9.75;;;1.10;99.90;;;-144.05;74.10;56993.25;5037863;28;20098;-78
2023/04/27 03:11:36;;;;;;;21.63;9.68;;;1.10;99.90;;;-144.05;73.97;56972.03;5036213;28;20468;-78
2023/04/27 03:14:05;;;;;;;14.90;7.63;;;1.00;99.90;;;-144.05;73.79;56984.78;5036149;28;20477;-79
2023/04/27 03:16:33;;;;;;;16.40;7.88;;;0.90;99.90;;;-144.05;74.14;56989.00;5036758;28;20049;-79
2023/04/27 03:19:00;;;;;;;13.82;7.05;;;0.90;99.90;;;-144.05;74.11;56986.91;5037628;28;20025;-79
2023/04/27 03:21:27;;;;;;;15.73;8.63;;;0.80;99.90;;;-144.05;74.04;57003.88;5038041;28;20445;-79
2023/04/27 03:23:53;;;;;;;20.15;8.80;;;0.70;99.90;;;-144.05;74.53;56989.00;5037372;28;20029;-78
2023/04/27 03:26:19;;;;;;;18.55;8.77;;;0.70;99.90;;;-144.05;74.33;56993.25;5036889;28;20045;-79
2023/04/27 03:28:45;;;;;;;19.30;8.40;;;0.80;99.90;;;-144.05;74.51;56965.66;5036333;28;20412;-77
2023/04/27 03:31:13;;;;;;;17.42;8.32;;;0.80;99.90;;;-144.05;74.42;57001.75;5037431;28;20068;-78
2023/04/27 03:33:40;;;;;;;16.08;8.52;;;0.80;99.90;;;-144.05;74.15;56995.38;5037736;28;20096;-79
2023/04/27 03:36:09;;;;;;;17.67;8.20;;;0.80;99.90;;;-144.05;74.71;56957.16;5035452;28;20509;-77
2023/04/27 03:38:36;;;;;;;15.95;8.35;;;0.90;99.90;;;-144.05;74.41;57016.63;5033694;28;20080;-76
2023/04/27 03:41:02;;;;;;;15.95;8.38;;;1.00;99.90;;;-144.05;74.62;56972.03;5034793;28;20496;-79
2023/04/27 03:43:28;;;;;;;23.38;10.23;;;1.00;99.90;;;-144.05;74.59;56984.78;5034600;28;20378;-77
2023/04/27 03:45:54;;;;;;;17.75;8.52;;;1.00;99.90;;;-144.05;74.72;56984.78;5033354;28;20053;-78
2023/04/27 03:48:21;;;;;;;17.27;8.60;;;1.00;99.90;;;-144.05;74.96;56957.16;5033614;28;20037;-77
2023/04/27 03:50:48;;;;;;;18.08;8.82;;;1.10;99.90;;;-144.05;75.10;56997.50;5032444;28;20038;-78
2023/04/27 03:53:14;;;;;;;19.50;8.40;;;1.10;99.90;;;-144.05;74.88;56991.13;5036348;28;20029;-78
2023/04/27 03:55:43;;;;;;;16.02;8.70;;;1.00;99.90;;;-144.05;75.20;56980.53;5036105;28;20091;-78
2023/04/27 03:58:10;;;;;;;18.05;8.98;;;1.10;99.90;;;-144.05;75.45;56978.41;5036103;28;20091;-78
2023/04/27 04:00:37;;;;;;;16.30;9.40;;;1.10;99.90;;;-144.05;75.28;56989.00;5036160;28;20048;-77
2023/04/27 04:03:05;;;;;;;17.95;8.82;;;1.10;99.90;;;-144.05;75.61;56997.50;5034765;28;20037;-78
2023/04/27 04:05:31;;;;;;;23.75;9.10;;;1.10;99.90;;;-144.05;75.58;56989.00;5036054;28;20034;-79
2023/04/27 04:07:57;;;;;;;16.08;7.68;;;1.10;99.90;;;-144.05;75.53;56986.91;5021724;28;20044;-77
2023/04/27 04:10:25;;;;;;;19.92;9.02;;;1.10;99.90;;;-144.05;75.48;56997.50;5043216;28;20045;-78
2023/04/27 04:12:51;;;;;;;17.63;7.95;;;1.00;99.90;;;-144.05;75.35;57008.13;5041485;28;20038;-77
2023/04/27 04:15:19;;;;;;;18.00;8.15;;;1.00;99.90;;;-144.05;75.33;56955.03;5040699;28;20397;-79
2023/04/27 04:17:46;;;;;;;15.88;8.07;;;1.00;99.90;;;-144.05;75.40;57010.25;5041234;28;20029;-78
2023/04/27 04:20:12;;;;;;;19.25;9.70;;;1.00;99.90;;;-144.05;75.13;56974.16;5042218;28;20425;-78
2023/04/27 04:22:39;;;;;;;22.48;9.43;;;1.00;99.90;;;-144.05;75.14;57012.38;5041482;28;20041;-79
2023/04/27 04:25:06;;;;;;;17.48;9.02;;;1.00;99.90;;;-144.05;75.35;56997.50;5040490;28;20498;-79
2023/04/27 04:27:32;;;;;;;19.70;8.50;;;1.00;99.90;;;-144.05;75.26;56997.50;5037456;28;20029;-79
2023/04/27 04:29:59;;;;;;;21.77;10.70;;;0.90;99.90;;;-144.05;75.72;56980.53;5021397;28;20033;-79
2023/04/27 04:32:28;;;;;;;14.55;7.68;;;0.90;99.90;;;-144.05;75.54;56982.66;5050665;22;20058;-79
2023/04/27 04:34:54;;;;;;;14.60;8.25;;;0.90;99.90;;;-144.05;75.51;57010.25;5023326;28;20042;-81
2023/04/27 04:37:20;;;;;;;17.50;9.13;;;0.90;99.90;;;-144.05;75.60;56965.66;5024672;28;20109;-80
2023/04/27 04:39:46;;;;;;;24.45;10.70;;;0.90;99.90;;;-144.05;75.87;56986.91;5012398;28;20390;-82
2023/04/27 04:42:12;;;;;;;17.52;9.05;;;1.00;99.90;;;-144.05;76.26;56989.00;5021585;28;20049;-80
2023/04/27 04:44:38;;;;;;;17.52;8.98;;;1.10;99.90;;;-144.05;75.74;56969.91;5021288;28;20037;-80
2023/04/27 04:47:05;;;;;;;17.63;8.88;;;1.20;99.90;;;-144.05;75.42;56986.91;5018737;28;20037;-79
2023/04/27 04:49:31;;;;;;;21.27;10.18;;;1.20;99.90;;;-144.05;75.44;56972.03;5019784;28;20386;-78
2023/04/27 04:51:57;;;;;;;21.17;9.30;;;1.20;99.90;;;-144.05;75.60;56972.03;5018450;28;20025;-80
2023/04/27 04:54:23;;;;;;;20.95;9.45;;;1.30;99.90;;;-144.05;75.45;56980.53;5020299;28;20072;-78
2023/04/27 04:56:49;;;;;;;18.73;9.85;;;1.40;99.90;;;-144.05;75.48;56984.78;5019045;28;20132;-78
2023/04/27 04:59:15;;;;;;;16.88;8.57;;;1.50;99.90;;;-144.05;75.39;56982.66;5001494;28;20465;-81
2023/04/27 05:01:41;;;;;;;22.08;9.00;;;1.50;99.90;;;-144.05;74.96;56967.78;5018246;28;20045;-79
2023/04/27 05:04:07;;;;;;;18.20;9.30;;;1.60;99.90;;;-144.05;75.23;56976.28;4999214;28;20060;-80
2023/04/27 05:06:33;;;;;;;17.90;8.15;;;1.60;99.90;;;-144.05;75.17;56965.66;4999924;28;20057;-79
2023/04/27 05:08:58;;;;;;;20.77;9.23;;;1.70;99.90;;;-144.05;74.89;56991.13;5020684;28;20105;-80
2023/04/27 05:11:24;;;;;;;26.20;10.50;;;1.80;99.90;;;-144.05;75.03;56950.78;5024536;28;20037;-79
2023/04/27 05:13:50;;;;;;;20.50;9.55;;;1.90;99.90;;;-144.05;74.95;56965.66;5002093;28;20064;-79
2023/04/27 05:16:16;;;;;;;17.33;9.40;;;2.00;99.90;;;-144.05;74.63;56961.41;5019666;28;20026;-78
2023/04/27 05:18:42;;;;;;;16.60;8.45;;;2.10;99.90;;;-144.05;74.55;56972.03;5017309;28;20030;-79
2023/04/27 05:21:16;;;;;;;18.75;9.27;;;2.30;99.90;;;-144.05;74.34;56980.53;5000670;28;20402;-78
2023/04/27 05:23:42;;;;;;;23.98;9.05;;;2.40;99.90;;;-144.05;74.00;56961.41;5017642;28;20030;-80
2023/04/27 05:26:17;;;;;;;13.30;7.97;;;2.60;99.90;;;-144.05;74.09;56948.66;4999844;28;20030;-80
2023/04/27 05:28:44;;;;;;;21.08;9.25;;;2.70;99.90;;;-144.05;73.61;56963.53;4999390;28;20029;-79
2023/04/27 05:31:09;;;;;;;13.73;7.82;;;2.90;99.90;;;-144.05;73.55;56921.06;5015705;28;20033;-80
2023/04/27 05:33:35;;;;;;;19.95;8.50;;;3.10;99.90;;;-144.05;72.23;56942.28;4998655;28;20034;-80
2023/04/27 05:36:01;;;;;;;14.70;7.78;;;3.50;99.90;;;-144.05;68.76;56931.66;4998323;28;20398;-79
2023/04/27 05:38:27;;;;;;;17.52;7.82;;;4.00;99.90;;;-144.05;66.75;56944.41;5015872;28;20022;-77
2023/04/27 05:40:58;;;;;;;17.25;7.95;;;4.40;99.90;;;-144.05;64.67;56931.66;5014327;28;20081;-78
2023/04/27 05:43:25;;;;;;;12.60;6.95;;;4.70;99.90;;;-144.05;62.48;56921.06;5015162;28;20036;-78
2023/04/27 05:45:52;;;;;;;15.02;6.78;;;5.10;99.90;;;-144.05;60.62;56929.53;5013900;28;20029;-78
2023/04/27 05:48:19;;;;;;;13.93;6.25;;;5.40;99.90;;;-144.05;57.80;56938.03;4997671;28;20149;-77
2023/04/27 05:50:45;;;;;;;14.32;6.53;;;5.60;99.90;;;-144.05;57.01;56933.78;5015034;28;20034;-79
2023/04/27 05:53:10;;;;;;;11.43;6.65;;;5.90;99.90;;;-144.05;55.78;56918.94;5014523;28;20026;-77
2023/04/27 05:55:37;;;;;;;15.02;6.68;;;6.10;99.90;;;-144.05;54.94;56921.06;5014724;28;20034;-79
2023/04/27 05:58:03;;;;;;;16.33;6.22;;;6.30;99.90;;;-144.05;54.15;56912.56;4997976;28;20489;-79
2023/04/27 06:00:29;;;;;;;9.77;5.47;;;6.50;99.90;;;-144.05;53.77;56912.56;4997585;28;20033;-77
2023/04/27 06:02:55;;;;;;;12.20;6.40;;;6.70;99.90;;;-144.05;52.81;56933.78;5013223;28;20493;-78
2023/04/27 06:05:21;;;;;;;12.13;6.78;;;7.00;99.90;;;-144.05;52.08;56887.06;5013933;28;20041;-79
2023/04/27 06:07:47;;;;;;;13.13;5.53;;;7.30;99.90;;;-144.05;51.04;56908.31;5015552;28;20421;-80
2023/04/27 06:10:15;;;;;;;10.00;5.35;;;7.50;99.90;;;-144.05;48.70;56901.94;5014473;28;20262;-77
2023/04/27 06:12:41;;;;;;;9.68;4.65;;;7.60;99.90;;;-144.05;48.56;56878.56;4996699;28;20030;-77
2023/04/27 06:15:08;;;;;;;13.80;4.72;;;7.70;99.90;;;-144.05;48.35;56921.06;5014650;28;20037;-78
2023/04/27 06:17:38;;;;;;;7.95;4.82;;;7.80;99.90;;;-144.05;48.51;56891.31;5014912;28;20502;-79
2023/04/27 06:20:08;;;;;;;12.10;4.75;;;7.90;99.90;;;-144.05;47.75;56895.56;5014681;28;20120;-80
2023/04/27 06:22:37;;;;;;;11.98;4.07;;;7.90;99.90;;;-144.05;46.02;56916.81;5014662;28;20025;-80
2023/04/27 06:25:06;;;;;;;10.57;4.32;;;7.80;99.90;;;-144.05;45.95;56918.94;5014870;28;20672;-78
2023/04/27 06:27:33;;;;;;;7.60;3.70;;;8.00;99.90;;;-144.05;46.24;56925.28;4996399;28;20121;-79
2023/04/27 06:30:00;;;;;;;12.13;3.60;;;8.00;99.90;;;-144.05;45.33;56901.94;4996497;28;20018;-79
2023/04/27 06:32:26;;;;;;;9.85;3.47;;;8.20;99.90;;;-144.05;44.80;56904.06;5012261;28;20026;-77
2023/04/27 06:34:51;;;;;;;6.50;3.45;;;8.20;99.90;;;-144.05;44.47;56906.19;4996023;28;20128;-77
2023/04/27 06:37:17;;;;;;;7.85;3.53;;;8.30;99.90;;;-144.05;45.03;56912.56;5013689;28;20026;-79
2023/04/27 06:39:44;;;;;;;7.97;3.42;;;8.20;99.90;;;-144.05;44.82;56904.06;5013653;28;20328;-77
2023/04/27 06:42:10;;;;;;;8.43;4.00;;;8.20;99.90;;;-144.05;44.20;56887.06;5013737;28;20435;-77
2023/04/27 06:44:37;;;;;;;8.90;3.65;;;8.60;99.90;;;-144.05;42.81;56893.44;4995639;28;20387;-78
2023/04/27 06:47:03;;;;;;;10.20;3.95;;;9.10;99.90;;;-144.05;42.00;56906.19;4995781;28;20402;-80
2023/04/27 06:49:29;;;;;;;8.10;3.00;;;9.10;99.90;;;-144.05;40.84;56893.44;5013222;28;20072;-77
2023/04/27 06:51:56;;;;;;;7.88;4.10;;;9.10;99.90;;;-144.05;42.27;56895.56;5011537;28;20022;-78
2023/04/27 06:54:22;;;;;;;11.63;3.55;;;9.00;99.90;;;-144.05;40.91;56921.06;5013068;28;20030;-77
2023/04/27 06:56:48;;;;;;;6.70;3.15;;;9.20;99.90;;;-144.05;40.75;56901.94;4996068;28;20394;-77
2023/04/27 06:59:13;;;;;;;7.18;3.85;;;9.10;99.90;;;-144.05;41.35;56893.44;4995631;28;20040;-79
2023/04/27 07:01:39;;;;;;;8.95;4.88;;;9.20;99.90;;;-144.05;40.44;56884.94;5013045;28;20069;-78
2023/04/27 07:04:06;;;;;;;12.65;4.00;;;9.30;99.90;;;-144.05;40.83;56891.31;4999525;28;20030;-80
2023/04/27 07:06:32;;;;;;;7.15;3.30;;;9.40;99.90;;;-144.05;39.90;56889.19;5017986;28;20045;-78
2023/04/27 07:08:58;;;;;;;7.10;3.05;;;9.60;99.90;;;-144.05;40.03;56861.56;5015287;28;20045;-79
2023/04/27 07:11:25;;;;;;;8.05;3.47;;;10.10;99.90;;;-144.05;38.45;56897.69;5015083;28;20113;-78
2023/04/27 07:13:50;;;;;;;7.05;2.83;;;10.40;99.90;;;-144.05;37.39;56857.34;5014801;28;20041;-79
2023/04/27 07:16:17;;;;;;;11.30;3.20;;;10.60;99.90;;;-144.05;37.77;56880.69;5014678;28;20029;-77
2023/04/27 07:18:43;;;;;;;8.43;2.63;;;10.80;99.90;;;-144.05;37.05;56923.19;5014363;28;20041;-77
2023/04/27 07:21:10;;;;;;;7.97;2.85;;;10.80;99.90;;;-144.05;36.39;56889.19;4998233;28;20034;-79
2023/04/27 07:23:39;;;;;;;6.13;2.22;;;10.90;99.40;;;-144.05;35.39;56861.56;4997322;28;20037;-79
2023/04/27 07:26:06;;;;;;;5.30;1.95;;;10.90;97.30;;;-144.05;34.95;56893.44;5016126;28;20397;-79
2023/04/27 07:28:34;;;;;;;7.43;3.42;;;11.10;95.90;;;-144.05;34.93;56867.94;4997190;28;20041;-79
2023/04/27 07:31:03;;;;;;;3.35;2.30;;;11.10;94.90;;;-144.05;36.06;56882.81;4996119;28;20397;-79
2023/04/27 07:33:29;;;;;;;6.07;1.83;;;10.80;96.70;;;-144.05;34.88;56863.69;5003723;28;20034;-79
2023/04/27 07:35:55;;;;;;;7.47;2.33;;;10.80;94.40;;;-144.05;34.50;56908.31;5023329;28;20041;-79
2023/04/27 07:38:22;;;;;;;6.22;2.17;;;10.80;93.80;;;-144.05;35.08;56901.94;4997373;28;20044;-79
2023/04/27 07:40:48;;;;;;;5.10;2.47;;;10.90;93.90;;;-144.05;34.58;56848.84;4997130;28;20084;-78
2023/04/27 07:43:15;;;;;;;5.15;2.05;;;11.20;93.80;;;-144.05;34.12;56880.69;5017782;28;20033;-77
2023/04/27 07:45:41;;;;;;;5.20;1.98;;;11.60;92.40;;;-144.05;33.54;56878.56;5018011;28;20037;-80
2023/04/27 07:48:07;;;;;;;5.78;2.92;;;11.90;91.30;;;-144.05;34.74;56870.06;5020101;28;20061;-79
2023/04/27 07:50:33;;;;;;;7.18;2.78;;;11.60;93.20;;;-144.05;34.21;56906.19;5017364;28;20054;-81
2023/04/27 07:52:59;;;;;;;5.68;2.80;;;12.00;93.10;;;-144.05;35.16;56870.06;5019139;28;20469;-77
2023/04/27 07:55:26;;;;;;;7.20;3.42;;;11.90;94.50;;;-144.05;35.26;56884.94;5018328;28;20022;-79
2023/04/27 07:57:54;;;;;;;7.40;3.38;;;12.30;94.30;;;-144.05;34.43;56884.94;5018177;28;20021;-78
2023/04/27 08:00:21;;;;;;;9.63;3.13;;;12.40;92.90;;;-144.05;34.86;56887.06;5001433;28;20026;-78
2023/04/27 08:02:49;;;;;;;7.20;3.33;;;12.60;92.90;;;-144.05;33.85;56887.06;5018761;28;20022;-78
2023/04/27 08:05:16;;;;;;;10.23;3.40;;;12.80;91.60;;;-144.05;33.25;56867.94;5018118;28;20037;-77
2023/04/27 08:07:41;;;;;;;6.78;3.60;;;12.90;90.50;;;-144.05;32.64;56872.19;5018005;28;20045;-80
2023/04/27 08:10:08;;;;;;;6.18;3.53;;;13.00;87.10;;;-144.05;31.99;56876.44;5000072;28;20045;-80
2023/04/27 08:12:34;;;;;;;7.07;3.00;;;12.90;86.10;;;-144.05;32.23;56895.56;5017953;28;20109;-78
2023/04/27 08:15:00;;;;;;;6.57;3.00;;;13.10;87.50;;;-144.05;32.29;56910.44;5018303;28;20025;-77
2023/04/27 08:17:26;;;;;;;6.45;3.40;;;13.00;86.10;;;-144.05;32.78;56874.31;5018434;28;20026;-79
2023/04/27 08:19:52;;;;;;;11.55;3.20;;;13.00;87.80;;;-144.05;33.10;56874.31;5018038;28;20022;-79
2023/04/27 08:22:18;;;;;;;5.38;3.45;;;13.50;88.10;;;-144.05;32.94;56887.06;5015891;28;20087;-78
2023/04/27 08:24:44;;;;;;;6.05;3.80;;;13.20;87.10;;;-144.05;32.88;56882.81;5017233;28;20041;-78
2023/04/27 08:27:10;;;;;;;9.38;3.63;;;13.40;87.70;;;-144.05;32.39;56897.69;5018237;28;20081;-80
2023/04/27 08:29:36;;;;;;;7.10;3.88;;;13.50;84.60;;;-144.05;32.40;56857.34;5019400;28;20030;-79
2023/04/27 08:32:04;;;;;;;8.40;3.05;;;13.30;84.30;;;-144.05;31.09;56882.81;5001835;28;20034;-79
2023/04/27 08:34:30;;;;;;;9.02;3.05;;;13.40;81.00;;;-144.05;32.28;56874.31;5018750;28;20116;-79
2023/04/27 08:36:56;;;;;;;10.55;3.95;;;13.20;83.00;;;-144.05;31.68;56884.94;5018755;28;20109;-78
2023/04/27 08:39:23;;;;;;;6.97;3.10;;;13.20;82.60;;;-144.05;31.15;56882.81;5017843;28;20054;-78
2023/04/27 08:41:49;;;;;;;7.38;3.10;;;13.60;80.70;;;-144.05;31.86;56872.19;5017717;28;20261;-77
2023/04/27 08:44:15;;;;;;;9.40;3.50;;;13.90;82.80;;;-144.05;31.34;56878.56;5000429;28;20034;-79
2023/04/27 08:46:41;;;;;;;8.50;3.35;;;13.70;80.60;;;-144.05;31.50;56855.22;5000123;28;20528;-77
2023/04/27 08:49:08;;;;;;;6.40;2.90;;;13.40;80.00;;;-144.05;31.50;56880.69;5018111;28;20030;-80
2023/04/27 08:51:34;;;;;;;7.03;3.00;;;13.70;80.90;;;-144.05;30.99;56882.81;5017756;28;20091;-77
2023/04/27 08:54:01;;;;;;;4.75;2.45;;;13.80;78.60;;;-144.05;30.50;56893.44;4998650;28;20030;-78
2023/04/27 08:56:29;;;;;;;5.28;2.70;;;14.10;76.20;;;-144.05;30.29;56878.56;5014605;28;20026;-78
2023/04/27 08:58:57;;;;;;;5.80;2.67;;;14.40;75.50;;;-144.05;29.97;56874.31;4998290;28;20022;-78
2023/04/27 09:01:26;;;;;;;5.90;1.98;;;14.70;74.80;;;-144.05;27.89;56891.31;4997989;28;20034;-78
2023/04/27 09:03:58;;;;;;;4.53;2.38;;;14.60;67.20;;;-144.05;28.50;56863.69;4998440;28;20069;-80
2023/04/27 09:06:34;;;;;;;7.57;2.28;;;14.40;69.00;;;-144.05;28.83;56872.19;5015621;28;20030;-79
2023/04/27 09:09:02;;;;;;;6.15;2.78;;;14.60;70.10;;;-144.05;28.78;56870.06;5016353;28;20025;-79
2023/04/27 09:11:38;;;;;;;4.80;2.50;;;14.60;68.20;;;-144.05;29.46;56891.31;5015267;28;20026;-78
2023/04/27 09:14:21;;;;;;;5.15;3.13;;;14.50;70.60;;;-144.05;29.42;56893.44;5014962;28;20038;-77
2023/04/27 09:16:58;;;;;;;6.05;2.95;;;14.80;71.10;;;-144.05;28.76;56887.06;5013048;28;20030;-76
2023/04/27 09:19:30;;;;;;;5.15;2.58;;;15.10;69.50;;;-144.05;29.00;56865.81;4996481;28;20037;-77
2023/04/27 09:22:12;;;;;;;5.35;2.42;;;14.90;70.80;;;-144.05;28.66;56872.19;4997445;28;20047;-77
2023/04/27 09:24:49;;;;;;;5.72;2.60;;;14.90;68.10;;;-144.05;28.22;56887.06;5014681;28;20184;-79
2023/04/27 09:27:23;;;;;;;4.13;2.13;;;14.80;65.90;;;-144.05;28.71;56887.06;5016758;28;20073;-78
2023/04/27 09:29:50;;;;;;;6.07;2.20;;;14.70;68.20;;;-144.05;28.19;56876.44;5016224;28;20030;-79
2023/04/27 09:32:19;;;;;;;5.10;2.15;;;14.80;65.60;;;-144.05;28.87;56895.56;5016595;28;20034;-78
2023/04/27 09:34:46;;;;;;;6.85;2.50;;;14.90;67.20;;;-144.05;29.11;56878.56;5017666;28;20109;-80
2023/04/27 09:37:13;;;;;;;5.30;2.00;;;15.00;66.90;;;-144.05;28.42;56891.31;5021577;28;20052;-78
2023/04/27 09:39:41;;;;;;;2.50;1.98;;;15.10;66.10;;;-144.05;27.25;56878.56;5017360;28;20025;-77
2023/04/27 09:42:08;;;;;;;5.60;2.33;;;14.90;61.90;;;-144.05;27.83;56884.94;5016862;28;20234;-80
2023/04/27 09:44:34;;;;;;;6.13;2.53;;;14.70;62.50;;;-144.05;29.28;56914.69;5017011;28;20028;-78
2023/04/27 09:47:01;;;;;;;5.93;2.60;;;14.80;67.70;;;-144.05;28.29;56889.19;5016846;28;20477;-79
2023/04/27 09:49:28;;;;;;;4.75;2.15;;;15.00;65.60;;;-144.05;27.65;56867.94;5017087;28;20405;-79
2023/04/27 09:51:57;;;;;;;4.45;1.73;;;14.90;64.30;;;-144.05;26.60;56889.19;4998766;28;20026;-77
2023/04/27 09:54:31;;;;;;;2.45;1.63;;;14.90;60.80;;;-144.05;26.36;56884.94;5018672;28;20156;-77
2023/04/27 09:57:36;;;;;;;5.75;2.70;;;14.70;57.80;;;-144.05;28.10;56901.94;5010750;28;20033;-78
2023/04/27 10:00:57;;;;;;;3.53;2.40;;;13.90;62.50;;;-144.05;28.64;56884.94;5015579;28;20046;-78
2023/04/27 10:03:40;;;;;;;3.28;1.98;;;14.30;64.60;;;-144.05;27.09;56872.19;5003965;28;20042;-79
2023/04/27 10:07:03;;;;;;;3.88;1.88;;;14.50;61.00;;;-144.05;27.41;56876.44;5012689;28;20029;-79